createdAt,value
2018-12-10T00:00:13.321Z,76.40
2018-12-10T00:02:43.575Z,76.80
2018-12-10T00:05:11.675Z,77.50
2018-12-10T00:07:39.751Z,78.10
2018-12-10T00:10:07.865Z,77.80
2018-12-10T00:12:35.929Z,77.80
2018-12-10T00:15:04.460Z,77.70
2018-12-10T00:17:32.516Z,77.70
2018-12-10T00:20:00.592Z,77.70
2018-12-10T00:22:28.736Z,77.70
2018-12-10T00:24:57.095Z,77.70
2018-12-10T00:27:25.189Z,77.60
2018-12-10T00:29:53.208Z,77.60
2018-12-10T00:32:21.638Z,77.60
2018-12-10T00:34:49.783Z,77.60
2018-12-10T00:37:17.854Z,77.20
2018-12-10T00:39:45.935Z,77.00
2018-12-10T00:42:14.131Z,76.80
2018-12-10T00:44:42.788Z,76.30
2018-12-10T00:47:10.836Z,76.60
2018-12-10T00:49:38.937Z,75.40
2018-12-10T00:52:07.121Z,75.90
2018-12-10T00:54:35.219Z,75.40
2018-12-10T00:57:03.300Z,75.50
2018-12-10T00:59:31.802Z,75.50
2018-12-10T01:01:59.957Z,75.80
2018-12-10T01:04:28.286Z,75.60
2018-12-10T01:06:56.364Z,75.90
2018-12-10T01:09:24.504Z,76.00
2018-12-10T01:11:52.635Z,76.30
2018-12-10T01:14:20.777Z,76.30
2018-12-10T01:16:48.928Z,76.50
2018-12-10T01:19:17.069Z,76.20
2018-12-10T01:21:45.263Z,76.20
2018-12-10T01:24:13.439Z,76.00
2018-12-10T01:26:41.569Z,76.00
2018-12-10T01:29:09.716Z,75.60
2018-12-10T01:31:37.863Z,76.30
2018-12-10T01:34:11.181Z,76.00
2018-12-10T01:36:39.360Z,75.90
2018-12-10T01:39:07.479Z,75.80
2018-12-10T01:41:35.542Z,76.00
2018-12-10T01:44:03.693Z,75.60
2018-12-10T01:46:31.874Z,74.70
2018-12-10T01:48:59.999Z,73.20
2018-12-10T01:51:28.089Z,72.70
2018-12-10T01:53:56.281Z,72.10
2018-12-10T01:56:24.322Z,72.00
2018-12-10T01:58:52.359Z,71.90
2018-12-10T02:01:20.445Z,71.50
2018-12-10T02:03:48.668Z,72.40
2018-12-10T02:06:16.879Z,72.90
2018-12-10T02:08:44.981Z,74.20
2018-12-10T02:11:13.145Z,73.90
2018-12-10T02:13:41.201Z,74.60
2018-12-10T02:16:09.333Z,74.80
2018-12-10T02:18:38.132Z,74.70
2018-12-10T02:21:07.072Z,74.90
2018-12-10T02:23:35.357Z,73.80
2018-12-10T02:26:03.666Z,74.40
2018-12-10T02:28:37.299Z,74.00
2018-12-10T02:31:06.132Z,73.90
2018-12-10T02:33:34.121Z,73.60
2018-12-10T02:36:02.179Z,73.90
2018-12-10T02:38:30.245Z,74.40
2018-12-10T02:40:58.366Z,75.10
2018-12-10T02:43:26.533Z,74.60
2018-12-10T02:45:54.727Z,74.30
2018-12-10T02:48:22.890Z,74.80
2018-12-10T02:50:51.422Z,75.00
2018-12-10T02:53:19.717Z,74.80
2018-12-10T02:55:47.870Z,75.50
2018-12-10T02:58:16.052Z,75.20
2018-12-10T03:00:44.216Z,75.40
2018-12-10T03:03:12.333Z,75.40
2018-12-10T03:05:40.486Z,75.60
2018-12-10T03:08:08.568Z,75.00
2018-12-10T03:10:36.878Z,75.70
2018-12-10T03:13:05.825Z,75.40
2018-12-10T03:15:39.028Z,75.40
2018-12-10T03:18:07.134Z,75.00
2018-12-10T03:20:35.208Z,74.90
2018-12-10T03:23:03.486Z,75.00
2018-12-10T03:25:31.671Z,75.30
2018-12-10T03:27:59.862Z,75.40
2018-12-10T03:30:28.108Z,75.40
2018-12-10T03:32:56.315Z,75.90
2018-12-10T03:35:29.467Z,75.50
2018-12-10T03:37:57.630Z,74.80
2018-12-10T03:40:25.779Z,75.00
2018-12-10T03:42:53.880Z,75.00
2018-12-10T03:45:27.212Z,75.10
2018-12-10T03:47:55.302Z,74.90
2018-12-10T03:50:23.407Z,74.30
2018-12-10T03:52:51.432Z,74.60
2018-12-10T03:55:19.788Z,74.10
2018-12-10T03:57:47.899Z,73.70
2018-12-10T04:00:16.123Z,73.10
2018-12-10T04:02:44.205Z,73.10
2018-12-10T04:05:12.645Z,72.40
2018-12-10T04:07:40.740Z,72.50
2018-12-10T04:10:08.799Z,72.60
2018-12-10T04:12:36.869Z,72.50
2018-12-10T04:15:05.100Z,72.20
2018-12-10T04:17:33.341Z,72.70
2018-12-10T04:20:01.473Z,73.20
2018-12-10T04:22:29.568Z,72.70
2018-12-10T04:24:57.615Z,72.10
2018-12-10T04:27:25.752Z,71.90
2018-12-10T04:29:53.954Z,72.00
2018-12-10T04:32:22.088Z,72.30
2018-12-10T04:34:50.166Z,72.10
2018-12-10T04:37:18.235Z,72.00
2018-12-10T04:39:46.246Z,71.60
2018-12-10T04:42:14.356Z,72.20
2018-12-10T04:44:42.807Z,71.70
2018-12-10T04:47:10.871Z,71.60
2018-12-10T04:49:38.994Z,71.00
2018-12-10T04:52:07.114Z,71.50
2018-12-10T04:54:35.215Z,71.90
2018-12-10T04:57:03.883Z,71.80
2018-12-10T04:59:31.932Z,71.10
2018-12-10T05:02:00.057Z,71.80
2018-12-10T05:04:28.283Z,71.60
2018-12-10T05:06:56.442Z,70.60
2018-12-10T05:09:24.878Z,70.30
2018-12-10T05:11:53.287Z,70.80
2018-12-10T05:14:22.102Z,70.70
2018-12-10T05:16:50.234Z,70.40
2018-12-10T05:19:18.409Z,70.40
2018-12-10T05:21:46.567Z,69.60
2018-12-10T05:24:15.000Z,71.10
2018-12-10T05:26:43.093Z,71.40
2018-12-10T05:29:11.154Z,70.30
2018-12-10T05:31:39.396Z,70.40
2018-12-10T05:34:07.575Z,70.60
2018-12-10T05:36:35.644Z,70.70
2018-12-10T05:39:06.385Z,70.70
2018-12-10T05:41:34.437Z,70.80
2018-12-10T05:44:02.605Z,70.90
2018-12-10T05:46:30.693Z,70.40
2018-12-10T05:48:58.808Z,71.00
2018-12-10T05:51:29.366Z,70.60
2018-12-10T05:53:59.064Z,70.70
2018-12-10T05:56:28.514Z,71.20
2018-12-10T05:58:58.131Z,70.30
2018-12-10T06:01:27.329Z,70.60
2018-12-10T06:03:56.733Z,70.40
2018-12-10T06:06:24.808Z,70.10
2018-12-10T06:08:52.976Z,70.20
2018-12-10T06:14:23.765Z,69.50
2018-12-10T06:16:51.796Z,69.40
2018-12-10T06:19:24.246Z,69.70
2018-12-10T06:21:56.989Z,68.80
2018-12-10T06:24:25.363Z,69.10
2018-12-10T06:26:53.482Z,69.40
2018-12-10T06:29:21.569Z,69.70
2018-12-10T06:31:51.369Z,69.20
2018-12-10T06:34:19.517Z,69.70
2018-12-10T06:36:47.666Z,69.40
2018-12-10T06:39:15.958Z,69.80
2018-12-10T06:41:44.078Z,69.70
2018-12-10T06:44:12.268Z,69.50
2018-12-10T06:46:40.389Z,70.10
2018-12-10T06:49:08.440Z,69.40
2018-12-10T06:51:36.581Z,69.10
2018-12-10T06:54:04.951Z,66.90
2018-12-10T06:56:33.145Z,69.20
2018-12-10T06:59:01.325Z,68.30
2018-12-10T07:01:29.510Z,67.20
2018-12-10T07:03:57.837Z,68.40
2018-12-10T07:06:25.973Z,68.60
2018-12-10T07:08:54.103Z,68.10
2018-12-10T07:11:22.206Z,67.20
2018-12-10T07:13:55.295Z,68.70
2018-12-10T07:16:23.426Z,68.30
2018-12-10T07:18:51.653Z,68.40
2018-12-10T07:21:19.829Z,69.20
2018-12-10T07:23:48.196Z,69.20
2018-12-10T07:26:16.378Z,69.20
2018-12-10T07:28:44.550Z,69.00
2018-12-10T07:31:12.671Z,68.80
2018-12-10T07:33:41.136Z,68.80
2018-12-10T07:36:09.218Z,69.20
2018-12-10T07:38:37.350Z,69.10
2018-12-10T07:41:05.555Z,69.20
2018-12-10T07:43:33.698Z,69.50
2018-12-10T07:46:01.827Z,67.20
2018-12-10T07:48:29.946Z,68.80
2018-12-10T07:50:58.084Z,68.50
2018-12-10T07:53:32.161Z,68.90
2018-12-10T07:56:01.161Z,68.20
2018-12-10T07:58:29.277Z,67.00
2018-12-10T08:00:57.517Z,66.90
2018-12-10T08:03:25.951Z,67.10
2018-12-10T08:05:54.094Z,67.00
2018-12-10T08:08:22.244Z,67.10
2018-12-10T08:10:50.349Z,67.20
2018-12-10T08:13:18.516Z,67.30
2018-12-10T08:15:46.582Z,67.20
2018-12-10T08:18:14.717Z,66.60
2018-12-10T08:20:42.879Z,66.20
2018-12-10T08:23:10.979Z,66.40
2018-12-10T08:25:39.187Z,67.20
2018-12-10T08:28:07.321Z,66.20
2018-12-10T08:30:35.629Z,66.90
2018-12-10T08:33:03.887Z,66.00
2018-12-10T08:35:40.816Z,65.60
2018-12-10T08:38:07.425Z,65.70
2018-12-10T08:40:35.548Z,66.10
2018-12-10T08:43:04.023Z,67.40
2018-12-10T08:45:32.247Z,67.40
2018-12-10T08:48:00.467Z,67.90
2018-12-10T08:50:28.622Z,69.80
2018-12-10T08:52:56.784Z,72.20
2018-12-10T08:55:25.005Z,75.20
2018-12-10T08:57:53.117Z,75.60
2018-12-10T09:00:21.244Z,75.90
2018-12-10T09:02:49.617Z,76.00
2018-12-10T09:05:23.331Z,76.20
2018-12-10T09:07:51.377Z,76.70
2018-12-10T09:10:19.436Z,77.20
2018-12-10T09:12:47.640Z,77.90
2018-12-10T09:15:15.942Z,77.00
2018-12-10T09:17:44.046Z,78.00
2018-12-10T09:20:12.199Z,78.60
2018-12-10T09:22:40.349Z,78.70
2018-12-10T09:25:08.535Z,78.20
2018-12-10T09:27:36.582Z,78.40
2018-12-10T09:30:07.632Z,79.20
2018-12-10T09:32:35.720Z,77.20
2018-12-10T09:35:04.760Z,78.00
2018-12-10T09:37:32.855Z,77.30
2018-12-10T09:40:00.989Z,77.20
2018-12-10T09:42:29.115Z,76.10
2018-12-10T09:44:57.220Z,74.50
2018-12-10T09:47:25.344Z,74.00
2018-12-10T09:49:53.452Z,73.40
2018-12-10T09:52:21.529Z,72.80
2018-12-10T09:54:49.726Z,72.60
2018-12-10T09:57:18.063Z,72.80
2018-12-10T09:59:46.236Z,72.30
2018-12-10T10:02:14.336Z,70.80
2018-12-10T10:04:42.775Z,70.80
2018-12-10T10:07:10.904Z,68.90
2018-12-10T10:09:39.195Z,69.40
2018-12-10T10:12:07.293Z,69.40
2018-12-10T10:14:35.587Z,68.00
2018-12-10T10:17:03.864Z,67.60
2018-12-10T10:19:32.047Z,68.00
2018-12-10T10:22:00.107Z,68.00
2018-12-10T10:24:28.280Z,66.10
2018-12-10T10:26:56.353Z,65.70
2018-12-10T10:29:24.413Z,64.40
2018-12-10T10:31:52.585Z,65.00
2018-12-10T10:34:26.044Z,64.00
2018-12-10T10:36:54.141Z,64.00
2018-12-10T10:39:22.310Z,62.20
2018-12-10T10:41:50.559Z,61.10
2018-12-10T10:44:18.721Z,60.00
2018-12-10T10:46:46.784Z,61.30
2018-12-10T10:49:14.847Z,61.80
2018-12-10T10:51:43.974Z,61.20
2018-12-10T10:54:12.402Z,63.10
2018-12-10T10:56:40.547Z,60.30
2018-12-10T10:59:09.623Z,60.80
2018-12-10T11:01:43.545Z,60.70
2018-12-10T11:04:11.672Z,62.70
2018-12-10T11:06:39.947Z,62.10
2018-12-10T11:09:15.023Z,62.90
2018-12-10T11:11:38.222Z,60.60
2018-12-10T11:14:06.335Z,60.30
2018-12-10T11:16:34.448Z,60.00
2018-12-10T11:19:02.632Z,59.70
2018-12-10T11:21:30.781Z,58.70
2018-12-10T11:23:59.050Z,57.90
2018-12-10T11:26:27.236Z,57.80
2018-12-10T11:28:55.382Z,58.80
2018-12-10T11:31:23.538Z,58.30
2018-12-10T11:33:51.743Z,58.10
2018-12-10T11:36:19.965Z,55.80
2018-12-10T11:38:48.005Z,54.80
2018-12-10T11:41:16.234Z,55.20
2018-12-10T11:43:44.370Z,55.60
2018-12-10T11:46:12.508Z,53.60
2018-12-10T11:48:40.642Z,55.10
2018-12-10T11:51:08.752Z,52.10
2018-12-10T11:53:37.189Z,52.40
2018-12-10T11:56:05.499Z,49.10
2018-12-10T11:58:33.727Z,50.70
2018-12-10T12:01:01.861Z,51.20
2018-12-10T12:03:30.123Z,52.20
2018-12-10T12:05:58.192Z,53.30
2018-12-10T12:08:26.201Z,52.70
2018-12-10T12:10:54.476Z,51.60
2018-12-10T12:13:22.610Z,53.50
2018-12-10T12:15:50.940Z,53.50
2018-12-10T12:18:19.542Z,52.50
2018-12-10T12:20:48.317Z,51.80
2018-12-10T12:23:16.412Z,52.90
2018-12-10T12:25:44.546Z,54.20
2018-12-10T12:28:12.655Z,54.00
2018-12-10T12:30:40.801Z,54.50
2018-12-10T12:33:08.903Z,53.90
2018-12-10T12:35:37.144Z,54.60
2018-12-10T12:38:05.472Z,54.30
2018-12-10T12:40:33.666Z,54.30
2018-12-10T12:43:06.896Z,54.50
2018-12-10T12:45:32.077Z,55.20
2018-12-10T12:48:00.210Z,54.40
2018-12-10T12:50:28.368Z,53.10
2018-12-10T12:52:56.459Z,54.20
2018-12-10T12:55:24.650Z,54.00
2018-12-10T12:57:52.827Z,54.40
2018-12-10T13:00:27.074Z,54.60
2018-12-10T13:02:51.265Z,55.20
2018-12-10T13:05:19.501Z,55.40
2018-12-10T13:07:47.804Z,55.50
2018-12-10T13:10:15.968Z,56.50
2018-12-10T13:12:44.067Z,55.10
2018-12-10T13:15:12.171Z,56.60
2018-12-10T13:17:40.446Z,57.40
2018-12-10T13:20:08.712Z,56.50
2018-12-10T13:22:36.923Z,57.70
2018-12-10T13:25:05.157Z,57.70
2018-12-10T13:27:33.359Z,57.70
2018-12-10T13:30:01.518Z,57.70
2018-12-10T13:32:29.608Z,57.70
2018-12-10T13:34:57.788Z,57.70
2018-12-10T13:37:25.975Z,57.60
2018-12-10T13:39:54.080Z,57.60
2018-12-10T13:42:22.150Z,57.60
2018-12-10T13:44:50.250Z,57.50
2018-12-10T13:47:19.318Z,58.10
2018-12-10T13:49:47.458Z,57.50
2018-12-10T13:52:15.612Z,57.60
2018-12-10T13:54:43.791Z,57.60
2018-12-10T13:57:11.957Z,58.30
2018-12-10T13:59:40.223Z,58.90
2018-12-10T14:02:08.434Z,58.30
2018-12-10T14:04:41.916Z,58.70
2018-12-10T14:07:10.088Z,58.80
2018-12-10T14:09:38.388Z,58.80
2018-12-10T14:12:06.516Z,58.40
2018-12-10T14:14:34.846Z,59.50
2018-12-10T14:17:03.172Z,59.80
2018-12-10T14:19:31.369Z,59.30
2018-12-10T14:21:59.554Z,60.00
2018-12-10T14:24:28.008Z,59.70
2018-12-10T14:26:56.980Z,61.30
2018-12-10T14:29:25.149Z,62.50
2018-12-10T14:31:53.284Z,64.70
2018-12-10T14:34:24.969Z,65.00
2018-12-10T14:36:53.196Z,64.80
2018-12-10T14:39:21.261Z,66.70
2018-12-10T14:41:49.377Z,66.90
2018-12-10T14:44:17.475Z,67.60
2018-12-10T14:46:45.619Z,67.50
2018-12-10T14:49:13.914Z,67.50
2018-12-10T14:51:42.137Z,67.50
2018-12-10T14:54:10.364Z,67.50
2018-12-10T14:56:38.487Z,67.10
2018-12-10T14:59:06.649Z,67.50
2018-12-10T15:01:34.694Z,67.60
2018-12-10T15:04:03.712Z,67.90
2018-12-10T15:06:31.844Z,68.60
2018-12-10T15:08:59.963Z,69.20
2018-12-10T15:11:28.077Z,70.60
2018-12-10T15:14:01.435Z,69.70
2018-12-10T15:16:29.647Z,72.30
2018-12-10T15:18:57.710Z,74.00
2018-12-10T15:21:25.814Z,76.60
2018-12-10T15:23:53.960Z,77.60
2018-12-10T15:26:22.132Z,77.60
2018-12-10T15:28:50.333Z,78.20
2018-12-10T15:31:18.495Z,79.90
2018-12-10T15:33:46.752Z,80.80
2018-12-10T15:36:14.931Z,81.50
2018-12-10T15:38:43.711Z,82.60
2018-12-10T15:41:11.900Z,82.50
2018-12-10T15:43:40.399Z,82.40
2018-12-10T15:46:08.587Z,82.40
2018-12-10T15:48:37.090Z,83.90
2018-12-10T15:51:05.212Z,82.50
2018-12-10T15:53:33.651Z,82.30
2018-12-10T15:56:01.952Z,82.20
2018-12-10T15:58:30.178Z,82.70
2018-12-10T16:00:58.336Z,82.90
2018-12-10T16:03:26.619Z,81.80
2018-12-10T16:05:54.808Z,82.00
2018-12-10T16:08:23.048Z,82.00
2018-12-10T16:10:51.188Z,81.90
2018-12-10T16:13:19.412Z,81.90
2018-12-10T16:15:47.505Z,81.90
2018-12-10T16:18:15.699Z,83.50
2018-12-10T16:20:43.893Z,83.30
2018-12-10T16:23:12.198Z,84.40
2018-12-10T16:25:40.360Z,84.40
2018-12-10T16:28:08.533Z,83.80
2018-12-10T16:30:37.050Z,84.10
2018-12-10T16:33:05.295Z,84.40
2018-12-10T16:35:33.806Z,84.60
2018-12-10T16:38:01.933Z,85.20
2018-12-10T16:40:30.161Z,84.60
2018-12-10T16:42:58.388Z,85.30
2018-12-10T16:45:26.619Z,85.30
2018-12-10T16:47:54.816Z,85.50
2018-12-10T16:50:23.619Z,86.20
2018-12-10T16:52:51.886Z,84.60
2018-12-10T16:55:20.077Z,85.40
2018-12-10T16:57:48.240Z,84.80
2018-12-10T17:00:16.468Z,85.60
2018-12-10T17:02:44.784Z,85.20
2018-12-10T17:05:21.042Z,84.40
2018-12-10T17:07:49.161Z,85.40
2018-12-10T17:10:17.249Z,84.40
2018-12-10T17:12:45.367Z,85.30
2018-12-10T17:15:13.832Z,84.70
2018-12-10T17:17:42.011Z,83.80
2018-12-10T17:20:10.254Z,84.60
2018-12-10T17:22:38.481Z,85.10
2018-12-10T17:25:07.280Z,84.80
2018-12-10T17:27:35.650Z,86.20
2018-12-10T17:30:05.163Z,86.00
2018-12-10T17:32:33.400Z,86.40
2018-12-10T17:35:01.556Z,86.10
2018-12-10T17:37:29.745Z,86.20
2018-12-10T17:39:57.919Z,85.30
2018-12-10T17:42:26.091Z,84.80
2018-12-10T17:44:54.285Z,84.40
2018-12-10T17:47:22.438Z,84.40
2018-12-10T17:49:50.898Z,84.30
2018-12-10T17:52:19.039Z,84.30
2018-12-10T17:54:47.233Z,84.60
2018-12-10T17:57:15.469Z,83.10
2018-12-10T17:59:43.567Z,83.70
2018-12-10T18:02:11.808Z,83.50
2018-12-10T18:04:40.051Z,83.20
2018-12-10T18:07:08.222Z,83.40
2018-12-10T18:09:36.382Z,83.70
2018-12-10T18:12:04.620Z,83.30
2018-12-10T18:14:32.831Z,83.20
2018-12-10T18:17:01.234Z,83.60
2018-12-10T18:19:29.598Z,83.80
2018-12-10T18:21:57.742Z,83.20
2018-12-10T18:24:25.899Z,83.40
2018-12-10T18:26:54.049Z,82.90
2018-12-10T18:29:22.257Z,82.30
2018-12-10T18:31:50.438Z,82.50
2018-12-10T18:34:18.621Z,81.90
2018-12-10T18:36:46.740Z,81.20
2018-12-10T18:39:14.881Z,81.20
2018-12-10T18:41:43.031Z,81.20
2018-12-10T18:44:11.687Z,81.20
2018-12-10T18:46:39.902Z,81.20
2018-12-10T18:49:08.060Z,81.20
2018-12-10T18:51:36.147Z,81.20
2018-12-10T18:54:04.311Z,81.20
2018-12-10T18:56:32.787Z,81.10
2018-12-10T18:59:00.991Z,80.90
2018-12-10T19:01:29.990Z,81.00
2018-12-10T19:04:02.297Z,81.00
2018-12-10T19:06:30.664Z,81.10
2018-12-10T19:08:59.201Z,80.90
2018-12-10T19:11:27.376Z,81.60
2018-12-10T19:13:55.775Z,81.10
2018-12-10T19:16:24.106Z,81.10
2018-12-10T19:18:52.507Z,81.10
2018-12-10T19:21:20.659Z,81.10
2018-12-10T19:23:48.906Z,81.00
2018-12-10T19:26:17.082Z,81.00
2018-12-10T19:28:45.250Z,81.40
2018-12-10T19:31:17.193Z,80.90
2018-12-10T19:33:45.539Z,81.00
2018-12-10T19:36:13.690Z,80.50
2018-12-10T19:38:41.822Z,80.40
2018-12-10T19:41:10.058Z,80.60
2018-12-10T19:43:38.145Z,80.10
2018-12-10T19:46:06.342Z,79.50
2018-12-10T19:48:34.483Z,80.00
2018-12-10T19:51:02.701Z,80.20
2018-12-10T19:53:30.950Z,79.20
2018-12-10T19:55:59.256Z,79.20
2018-12-10T19:58:29.511Z,79.70
2018-12-10T20:00:57.770Z,80.00
2018-12-10T20:03:26.243Z,79.90
2018-12-10T20:05:59.999Z,79.70
2018-12-10T20:08:28.377Z,79.30
2018-12-10T20:10:57.325Z,79.80
2018-12-10T20:13:25.517Z,79.20
2018-12-10T20:15:53.783Z,79.20
2018-12-10T20:18:22.082Z,78.50
2018-12-10T20:20:50.368Z,78.80
2018-12-10T20:23:18.720Z,77.30
2018-12-10T20:25:47.033Z,78.40
2018-12-10T20:28:15.195Z,77.60
2018-12-10T20:30:43.403Z,77.80
2018-12-10T20:33:11.737Z,77.00
2018-12-10T20:35:40.069Z,76.00
2018-12-10T20:38:08.223Z,76.10
2018-12-10T20:40:36.348Z,76.10
2018-12-10T20:43:04.563Z,76.20
2018-12-10T20:45:32.803Z,76.00
2018-12-10T20:48:00.980Z,76.20
2018-12-10T20:50:29.238Z,76.20
2018-12-10T20:52:57.452Z,76.10
2018-12-10T20:55:25.671Z,76.20
2018-12-10T20:57:53.798Z,76.10
2018-12-10T21:00:22.017Z,76.20
2018-12-10T21:02:50.270Z,76.10
2018-12-10T21:05:18.436Z,76.30
2018-12-10T21:07:46.726Z,77.70
2018-12-10T21:10:14.888Z,77.50
2018-12-10T21:12:43.189Z,78.20
2018-12-10T21:15:11.681Z,78.40
2018-12-10T21:17:39.858Z,78.20
2018-12-10T21:20:09.359Z,78.70
2018-12-10T21:22:37.740Z,78.60
2018-12-10T21:25:06.484Z,78.10
2018-12-10T21:27:34.608Z,78.60
2018-12-10T21:30:02.914Z,79.10
2018-12-10T21:32:31.297Z,78.40
2018-12-10T21:35:04.744Z,77.90
2018-12-10T21:37:32.956Z,78.00
2018-12-10T21:40:01.176Z,77.90
2018-12-10T21:42:29.279Z,78.00
2018-12-10T21:45:02.429Z,77.40
2018-12-10T21:47:30.628Z,77.40
2018-12-10T21:49:58.748Z,77.10
2018-12-10T21:52:26.968Z,78.00
2018-12-10T21:54:55.138Z,76.80
2018-12-10T21:57:23.263Z,76.90
2018-12-10T21:59:51.404Z,76.80
2018-12-10T22:02:19.537Z,77.20
2018-12-10T22:04:47.800Z,77.40
2018-12-10T22:07:16.004Z,77.30
2018-12-10T22:09:44.815Z,77.10
2018-12-10T22:12:13.054Z,76.30
2018-12-10T22:14:41.259Z,76.40
2018-12-10T22:17:09.373Z,76.20
2018-12-10T22:19:37.597Z,76.20
2018-12-10T22:22:05.717Z,76.30
2018-12-10T22:24:33.887Z,76.20
2018-12-10T22:27:02.101Z,76.30
2018-12-10T22:29:30.227Z,76.20
2018-12-10T22:31:58.493Z,76.50
2018-12-10T22:34:26.644Z,75.70
2018-12-10T22:36:54.907Z,76.20
2018-12-10T22:39:23.720Z,76.30
2018-12-10T22:41:51.867Z,76.30
2018-12-10T22:44:20.351Z,76.30
2018-12-10T22:46:48.520Z,76.30
2018-12-10T22:49:17.574Z,76.30
2018-12-10T22:51:45.726Z,76.30
2018-12-10T22:54:13.825Z,76.30
2018-12-10T22:56:41.949Z,76.30
2018-12-10T22:59:10.121Z,76.20
2018-12-10T23:01:38.455Z,76.30
2018-12-10T23:04:06.607Z,76.30
2018-12-10T23:06:34.733Z,76.30
2018-12-10T23:09:03.896Z,76.40
2018-12-10T23:11:32.046Z,76.30
2018-12-10T23:14:00.220Z,77.00
2018-12-10T23:16:28.317Z,76.30
2018-12-10T23:18:56.581Z,76.30
2018-12-10T23:21:24.628Z,76.20
2018-12-10T23:23:52.696Z,76.50
2018-12-10T23:26:20.809Z,77.00
2018-12-10T23:28:48.896Z,77.50
2018-12-10T23:31:17.093Z,77.30
2018-12-10T23:33:45.216Z,76.60
2018-12-10T23:36:13.332Z,76.50
2018-12-10T23:38:41.522Z,76.30
2018-12-10T23:41:09.655Z,76.30
2018-12-10T23:43:37.829Z,76.60
2018-12-10T23:46:06.100Z,76.30
2018-12-10T23:48:34.287Z,76.40
2018-12-10T23:51:02.411Z,76.30
2018-12-10T23:53:30.473Z,76.60
2018-12-10T23:55:58.631Z,77.20
2018-12-10T23:58:26.755Z,77.60
